Stations météo

réclame
Mon MeteoGroup
Ell, Pays-Bas (6377): Température de l'air & dewpoint: 08.08.2018 19:00:00 - 14.08.2018 19:00:00 (CEST)Ell, Pays-Bas (6377): Température de l'air 5cm: 08.08.2018 19:00:00 - 14.08.2018 19:00:00 (CEST)Ell, Pays-Bas (6377): Vitesse du vent & gusts: 08.08.2018 19:00:00 - 14.08.2018 19:00:00 (CEST)Ell, Pays-Bas (6377): Direction du vent: 08.08.2018 19:00:00 - 14.08.2018 19:00:00 (CEST)Ell, Pays-Bas (6377): visibility: 08.08.2018 19:00:00 - 14.08.2018 19:00:00 (CEST)Ell, Pays-Bas (6377): Quantités de précipitations: 08.08.2018 19:00:00 - 14.08.2018 19:00:00 (CEST)
Date & Time tt [°C] td [°C] tt 5cm [°C] ff [km/h] ff [knt] fx [km/h] fx [knt] dd vv [km] rr [mm]
14.08.2018 19:00:00 20,9 16,8 21,1 10 5 - - W 26 -
14.08.2018 18:00:00 20,9 15,8 21,7 14 8 29 16 WNW 29 0,0
14.08.2018 17:00:00 20,8 16,4 21,3 18 10 32 18 W 28 0,0
14.08.2018 16:00:00 19,8 17,0 20,1 25 14 40 21 W 14 0,1
14.08.2018 15:00:00 23,5 16,3 25,7 22 12 32 18 SW 30 0,0
14.08.2018 14:00:00 21,9 15,3 24,6 18 10 29 16 WNW 37 0,0
14.08.2018 13:00:00 22,9 15,7 23,0 18 10 32 18 W 42 0,0
14.08.2018 12:00:00 21,2 15,1 21,7 22 12 32 18 W 41 0,0
14.08.2018 11:00:00 20,8 15,4 21,1 18 10 29 16 WNW 28 0,0
14.08.2018 10:00:00 19,4 16,2 19,4 14 8 22 12 W 15 0,0
14.08.2018 09:00:00 17,6 16,1 17,5 11 6 18 10 WSW 7 0,0
14.08.2018 08:00:00 17,0 15,7 16,9 14 8 22 12 SW 7 0,0
14.08.2018 07:00:00 16,4 15,3 16,3 14 8 25 14 SW 5 0,0
14.08.2018 06:00:00 16,3 15,0 16,2 14 8 25 14 WSW 12 0,0
14.08.2018 05:00:00 16,6 15,2 16,3 14 8 25 14 WSW 13 0,0
14.08.2018 04:00:00 16,9 15,3 16,6 14 8 22 12 WSW 12 0,0
14.08.2018 03:00:00 16,8 15,4 16,2 14 8 25 14 SW 12 0,0
14.08.2018 02:00:00 16,8 15,4 16,1 14 8 22 12 WSW 14 0,0
14.08.2018 01:00:00 16,2 15,3 15,5 11 6 14 8 SW 16 0,0
14.08.2018 00:00:00 16,7 15,4 15,9 11 6 18 10 SW 20 0,0
13.08.2018 23:00:00 17,4 15,8 17,0 14 8 18 10 SW 27 0,0
13.08.2018 22:00:00 17,0 15,6 16,4 11 6 18 10 SW 35 0,0
13.08.2018 21:00:00 17,8 15,6 17,1 11 6 22 12 SW 43 0,0
13.08.2018 20:00:00 18,7 15,8 18,9 14 8 29 16 SW 39 0,0
13.08.2018 19:00:00 19,3 15,8 18,9 14 8 32 18 SW 36 0,5
13.08.2018 18:00:00 20,3 15,7 20,6 18 10 32 18 SW 41 0,0
13.08.2018 17:00:00 21,4 16,6 23,2 18 10 29 16 SW 42 0,0
13.08.2018 16:00:00 19,5 16,0 19,6 22 12 29 16 SW 33 0,0
13.08.2018 15:00:00 18,9 16,0 18,8 14 8 40 21 WSW 28 0,2
13.08.2018 14:00:00 21,4 16,7 23,0 29 16 40 21 SW 34 0,3
13.08.2018 13:00:00 19,6 16,8 19,9 18 10 32 18 S 41 0,0
13.08.2018 12:00:00 20,3 16,6 20,7 22 12 32 18 SSW 40 0,0
13.08.2018 11:00:00 19,4 17,5 20,1 14 8 22 12 SSW 28 0,2
13.08.2018 10:00:00 18,2 17,2 18,0 11 6 18 10 SSW 14 0,5
13.08.2018 09:00:00 17,1 16,3 16,9 7 4 7 4 SSW 14 0,0
13.08.2018 08:00:00 16,3 15,8 16,1 4 2 18 10 SSE 13 0,7
13.08.2018 07:00:00 16,4 15,3 16,1 11 6 22 12 SE 10 1,1
13.08.2018 06:00:00 17,2 14,5 16,2 14 8 32 18 SSW 28 2,5
13.08.2018 05:00:00 17,2 13,2 16,0 18 10 29 16 SSE 28 0,2
13.08.2018 04:00:00 18,2 12,2 16,9 7 4 14 8 WSW 44 0,0
13.08.2018 03:00:00 17,3 13,2 15,9 4 2 7 4 E 46 0,0
13.08.2018 02:00:00 18,1 11,9 15,3 4 2 7 4 ESE 44 0,0
13.08.2018 01:00:00 17,1 12,4 14,1 4 2 7 4 E 45 0,0
13.08.2018 00:00:00 17,3 11,7 13,0 4 2 7 4 SSE 48 0,0
12.08.2018 23:00:00 17,7 11,4 13,8 4 2 7 4 SE 48 0,0
12.08.2018 22:00:00 21,7 10,0 17,3 7 4 11 6 S 48 0,0
12.08.2018 21:00:00 21,9 12,8 19,9 7 4 11 6 S 48 0,0
12.08.2018 20:00:00 24,8 11,9 24,8 7 4 22 12 S 27 0,0
12.08.2018 19:00:00 26,0 10,7 25,8 14 8 22 12 SSE 19 0,0
12.08.2018 18:00:00 27,2 10,2 27,3 18 10 29 16 S 41 0,0
12.08.2018 17:00:00 27,5 9,5 26,8 14 8 29 16 S 29 0,7
12.08.2018 16:00:00 26,5 10,2 24,3 14 8 29 16 SSE 9 0,2
12.08.2018 15:00:00 25,9 10,2 26,4 22 12 29 16 S 43 0,0
12.08.2018 14:00:00 25,4 10,7 25,8 18 10 29 16 S 6 0,0
12.08.2018 13:00:00 23,5 11,3 26,8 18 10 29 16 SSE 7 0,0
12.08.2018 12:00:00 23,8 11,2 26,5 22 12 29 16 S 22 0,0
12.08.2018 11:00:00 23,1 9,7 26,1 18 10 29 16 S 35 0,0
12.08.2018 10:00:00 20,5 10,2 21,4 14 8 18 10 S 39 0,0
12.08.2018 09:00:00 17,3 10,2 18,4 11 6 18 10 S 36 0,0
12.08.2018 08:00:00 13,9 10,6 13,8 7 4 11 6 S 38 0,0
12.08.2018 07:00:00 12,1 9,7 9,8 4 2 7 4 SSE 34 0,0
12.08.2018 06:00:00 11,3 9,1 8,2 7 4 7 4 SE 33 0,0
12.08.2018 05:00:00 10,7 9,2 8,6 4 2 7 4 SSE 20 0,0
12.08.2018 04:00:00 11,3 9,5 8,7 4 2 11 6 SE 27 0,0
12.08.2018 03:00:00 11,6 9,6 7,8 7 4 7 4 SE 24 0,0
12.08.2018 02:00:00 11,5 10,3 8,8 0 0 4 2 N 17 0,0
12.08.2018 01:00:00 11,2 10,2 8,1 4 2 4 2 SSE 16 0,0
12.08.2018 00:00:00 12,2 10,0 8,8 0 0 4 2 N 36 0,0
11.08.2018 23:00:00 12,5 10,2 8,9 4 2 7 4 NE 31 0,0
11.08.2018 22:00:00 13,8 10,7 10,8 4 2 4 2 WNW 50 0,0
11.08.2018 21:00:00 18,0 8,2 15,9 4 2 11 6 NW 49 0,0
11.08.2018 20:00:00 20,2 8,2 20,9 7 4 18 10 WNW 38 0,0
11.08.2018 19:00:00 21,0 7,7 22,3 14 8 22 12 W 42 0,0
11.08.2018 18:00:00 21,8 8,0 24,0 18 10 25 14 W 43 0,0
11.08.2018 17:00:00 21,9 7,6 24,4 18 10 29 16 W 35 0,0
11.08.2018 16:00:00 21,9 8,6 25,2 18 10 29 16 W 36 0,0
11.08.2018 15:00:00 22,3 9,2 24,2 14 8 32 18 W 37 0,0
11.08.2018 14:00:00 21,0 8,8 22,3 14 8 32 18 WSW 36 0,0
11.08.2018 13:00:00 19,8 8,1 23,3 18 10 36 19 W 31 0,0
11.08.2018 12:00:00 19,6 9,7 19,2 22 12 32 18 WSW 34 0,0
11.08.2018 11:00:00 17,6 10,7 19,5 18 10 32 18 W 39 0,0
11.08.2018 10:00:00 17,0 11,6 18,1 18 10 29 16 WSW 27 0,0
11.08.2018 09:00:00 15,5 12,9 15,9 11 6 22 12 WSW 2,5 0,0
11.08.2018 08:00:00 14,1 12,6 14,1 14 8 22 12 WSW 17 0,0
11.08.2018 07:00:00 13,2 12,3 12,5 11 6 22 12 SW 15 0,0
11.08.2018 06:00:00 12,9 12,0 12,1 11 6 18 10 WSW 20 0,0
11.08.2018 05:00:00 13,0 12,1 12,2 11 6 18 10 SW 26 0,0
11.08.2018 04:00:00 12,8 11,8 12,3 7 4 14 8 SW 42 0,0
11.08.2018 03:00:00 13,6 12,2 13,3 11 6 36 19 WSW 49 0,9
11.08.2018 02:00:00 14,5 13,6 14,7 25 14 43 23 W 5 1,7
11.08.2018 01:00:00 17,6 10,2 17,4 11 6 29 16 W 49 0,0
11.08.2018 00:00:00 18,5 8,3 17,6 14 8 22 12 SSW 50 0,0
10.08.2018 23:00:00 18,7 8,9 17,9 11 6 18 10 SSW 49 0,0
10.08.2018 22:00:00 19,2 8,6 18,5 11 6 22 12 SSW 49 0,0
10.08.2018 21:00:00 19,4 7,9 18,3 14 8 32 18 SSW 50 0,0
10.08.2018 20:00:00 21,4 7,4 21,6 25 14 40 21 SSW 43 0,0
10.08.2018 19:00:00 22,4 7,6 23,7 25 14 43 23 SW 37 0,0
10.08.2018 18:00:00 23,0 7,9 22,7 22 12 43 23 SSW 44 0,0
10.08.2018 17:00:00 21,6 7,7 23,6 25 14 43 23 SW 35 0,0
10.08.2018 16:00:00 22,2 7,2 25,3 29 16 47 25 SW 43 0,0
10.08.2018 15:00:00 22,7 8,5 24,7 29 16 47 25 SW 43 0,0
10.08.2018 14:00:00 20,9 8,2 22,8 25 14 43 23 SSW 39 0,0
10.08.2018 13:00:00 19,7 9,1 20,0 22 12 40 21 SSW 39 0,0
10.08.2018 12:00:00 19,0 8,2 20,1 29 16 43 23 SW 42 0,0
10.08.2018 11:00:00 19,3 10,5 21,7 25 14 40 21 SW 26 0,0
10.08.2018 10:00:00 17,8 12,1 19,4 25 14 36 19 SSW 31 0,0
10.08.2018 09:00:00 16,3 12,4 16,7 22 12 32 18 SSW 27 0,0
10.08.2018 08:00:00 14,5 12,0 14,4 18 10 29 16 SSW 24 0,0
10.08.2018 07:00:00 13,3 11,9 12,7 14 8 22 12 S 16 0,0
10.08.2018 06:00:00 12,9 11,8 12,3 14 8 22 12 S 16 0,0
10.08.2018 05:00:00 12,9 11,6 12,2 11 6 22 12 SSW 18 0,0
10.08.2018 04:00:00 13,4 12,1 12,8 11 6 25 14 SW 18 0,0
10.08.2018 03:00:00 14,2 12,0 13,6 14 8 32 18 WSW 40 0,0
10.08.2018 02:00:00 15,2 12,3 14,8 18 10 36 19 WSW 40 0,0
10.08.2018 01:00:00 15,4 12,3 15,2 22 12 47 25 W 49 0,0
10.08.2018 00:00:00 15,4 13,5 15,2 25 14 47 25 W 12 0,1
09.08.2018 23:00:00 16,6 13,5 16,4 29 16 50 27 WSW 50 0,0
09.08.2018 22:00:00 17,5 13,7 17,2 36 19 54 29 SW 50 0,0
09.08.2018 21:00:00 19,6 15,2 19,2 25 14 50 27 SW 48 0,0
09.08.2018 20:00:00 20,2 15,2 19,8 32 18 58 31 SW 43 0,0
09.08.2018 19:00:00 20,5 18,3 20,3 32 18 47 25 SSW 8 0,7
09.08.2018 18:00:00 24,1 17,8 24,3 25 14 43 23 S 36 0,0
09.08.2018 17:00:00 23,7 18,6 24,5 25 14 43 23 S 16 0,0
09.08.2018 16:00:00 21,2 19,0 21,0 4 2 11 6 S 7 0,1
09.08.2018 15:00:00 19,4 17,9 19,2 7 4 18 10 NNE 4,5 1,1
09.08.2018 14:00:00 20,1 17,7 20,1 11 6 40 21 N 9 0,2
09.08.2018 13:00:00 20,6 17,0 20,9 22 12 29 16 NE 14 0,0
09.08.2018 12:00:00 20,2 17,4 21,4 22 12 32 18 NE 16 0,4
09.08.2018 11:00:00 16,5 15,3 16,2 18 10 43 23 NE 1,9 9,5
09.08.2018 10:00:00 20,6 13,8 20,5 11 6 18 10 ENE 25 0,0
09.08.2018 09:00:00 19,2 14,4 18,8 7 4 14 8 ENE 21 0,0
09.08.2018 08:00:00 16,9 13,7 15,8 7 4 14 8 ENE 21 0,0
09.08.2018 07:00:00 12,7 11,9 11,2 7 4 7 4 ENE 17 0,0
09.08.2018 06:00:00 11,2 10,7 8,7 4 2 7 4 N 9 0,0
09.08.2018 05:00:00 11,0 10,6 8,6 4 2 7 4 NNE 10 0,0
09.08.2018 04:00:00 11,8 11,4 8,3 0 0 7 4 N 10 0,0
09.08.2018 03:00:00 11,0 10,4 8,4 4 2 7 4 E 12 0,0
09.08.2018 02:00:00 11,8 11,2 8,6 0 0 4 2 N 12 0,0
09.08.2018 01:00:00 12,9 11,8 8,6 4 2 4 2 NE 16 0,0
09.08.2018 00:00:00 13,2 11,9 9,3 0 0 4 2 N 20 0,0
08.08.2018 23:00:00 14,7 11,8 10,9 0 0 4 2 N 28 0,0
08.08.2018 22:00:00 17,9 11,6 13,7 4 2 14 8 WNW 42 0,0
08.08.2018 21:00:00 19,3 12,1 18,8 11 6 22 12 W 45 0,0
08.08.2018 20:00:00 22,0 12,3 22,7 14 8 25 14 W 43 0,0
08.08.2018 19:00:00 23,7 12,6 24,7 11 6 25 14 W 35 0,0

tt = Température de l'air
td = dewpoint
tt 5cm = Température de l'air 5cm
ff = Vitesse du vent
fx = gusts
dd = Direction du vent
vv = visibility
rr = Quantités de précipitations

stations d'obs. à proximité